Time;durP1;ratioP1;P1;durP2;ratioP2;P2;SDS_P1;SDS_P2;PMS_P1;PMS_P2;Temp;Humidity;BMP_temperature;BMP_pressure;BME280_temperature;BME280_humidity;BME280_pressure;Samples;Min_cycle;Max_cycle;Signal;HPM_P1;HPM_P2
2024/01/09 00:00:58;;;;;;;17.73;5.82;;;;;;;-4.73;100.00;103148.34;5061572;28;20032;-77
2024/01/09 00:03:24;;;;;;;18.17;5.80;;;;;;;-4.81;100.00;103157.88;5062506;28;20037;-76
2024/01/09 00:05:49;;;;;;;18.40;5.93;;;;;;;-4.75;100.00;103147.25;5062800;28;20039;-74
2024/01/09 00:08:14;;;;;;;17.83;5.85;;;;;;;-4.83;100.00;103141.31;5061301;28;20029;-74
2024/01/09 00:10:40;;;;;;;18.40;5.80;;;;;;;-4.88;100.00;103134.75;5063763;28;20135;-78
2024/01/09 00:13:05;;;;;;;17.88;5.75;;;;;;;-4.91;100.00;103145.69;5042970;28;20049;-78
2024/01/09 00:15:31;;;;;;;18.58;6.10;;;;;;;-4.85;100.00;103152.22;5055173;28;20120;-76
2024/01/09 00:17:59;;;;;;;17.17;5.63;;;;;;;-4.86;100.00;103142.66;5061749;28;20063;-78
2024/01/09 00:20:24;;;;;;;18.33;6.05;;;;;;;-4.93;100.00;103134.28;5051966;28;20545;-80
2024/01/09 00:22:53;;;;;;;18.10;6.00;;;;;;;-4.93;100.00;103143.69;5062376;28;20024;-79
2024/01/09 00:25:19;;;;;;;17.77;6.07;;;;;;;-4.93;100.00;103139.44;5061653;28;20033;-80
2024/01/09 00:27:45;;;;;;;18.33;5.97;;;;;;;-4.99;100.00;103149.13;5063256;28;20040;-76
2024/01/09 00:30:11;;;;;;;18.55;5.90;;;;;;;-4.94;100.00;103135.03;5060399;28;20033;-79
2024/01/09 00:32:37;;;;;;;18.70;5.70;;;;;;;-4.91;100.00;103135.38;5045714;28;20052;-79
2024/01/09 00:35:03;;;;;;;18.75;5.80;;;;;;;-4.95;100.00;103138.38;5060786;28;20032;-80
2024/01/09 00:37:28;;;;;;;18.08;5.90;;;;;;;-4.96;100.00;103133.97;5063087;28;20037;-78
2024/01/09 00:39:54;;;;;;;18.48;6.03;;;;;;;-4.97;100.00;103142.47;5061593;28;20364;-80
2024/01/09 00:42:19;;;;;;;17.95;5.43;;;;;;;-5.00;100.00;103136.97;5061783;28;20025;-79
2024/01/09 00:44:44;;;;;;;18.17;5.63;;;;;;;-5.01;100.00;103135.19;5062905;28;20024;-80
2024/01/09 00:47:10;;;;;;;18.08;5.90;;;;;;;-5.03;100.00;103139.25;5060213;28;20472;-79
2024/01/09 00:49:35;;;;;;;18.48;5.75;;;;;;;-5.04;100.00;103129.66;5054217;28;20437;-80
2024/01/09 00:52:02;;;;;;;18.08;5.70;;;;;;;-5.07;100.00;103134.50;5063533;28;20531;-79
2024/01/09 00:54:27;;;;;;;17.60;5.88;;;;;;;-4.99;100.00;103137.91;5061215;28;20029;-80
2024/01/09 00:56:53;;;;;;;17.95;5.75;;;;;;;-5.03;100.00;103134.09;5061802;28;20052;-80
2024/01/09 00:59:18;;;;;;;17.63;5.68;;;;;;;-5.00;100.00;103130.91;5054272;28;20028;-80
2024/01/09 01:01:51;;;;;;;18.50;5.55;;;;;;;-5.00;100.00;103125.75;5063138;28;20021;-80
2024/01/09 01:04:17;;;;;;;17.42;5.40;;;;;;;-5.05;100.00;103132.09;5064700;28;20033;-78
2024/01/09 01:06:44;;;;;;;18.67;5.80;;;;;;;-5.09;100.00;103131.78;5066604;28;20071;-80
2024/01/09 01:09:09;;;;;;;18.25;5.90;;;;;;;-5.04;100.00;103129.66;5063597;28;20025;-80
2024/01/09 01:11:35;;;;;;;17.63;5.57;;;;;;;-5.10;100.00;103129.03;5063642;28;20037;-80
2024/01/09 01:14:00;;;;;;;17.55;5.78;;;;;;;-5.10;100.00;103134.19;5066227;28;20116;-77
2024/01/09 01:16:26;;;;;;;17.90;5.93;;;;;;;-5.06;100.00;103126.03;5046903;28;20075;-76
2024/01/09 01:18:51;;;;;;;17.73;6.00;;;;;;;-5.10;100.00;103137.72;5064882;28;20025;-77
2024/01/09 01:21:16;;;;;;;18.80;6.15;;;;;;;-5.18;100.00;103135.09;5065832;28;20035;-76
2024/01/09 01:23:42;;;;;;;17.95;5.85;;;;;;;-5.15;100.00;103133.72;5063690;28;20031;-76
2024/01/09 01:26:07;;;;;;;18.40;5.80;;;;;;;-5.14;100.00;103142.38;5066667;28;20035;-73
2024/01/09 01:28:33;;;;;;;18.30;5.80;;;;;;;-5.18;100.00;103135.09;5063408;28;20029;-77
2024/01/09 01:30:58;;;;;;;18.08;6.00;;;;;;;-5.22;100.00;103138.09;5065803;28;20033;-77
2024/01/09 01:33:24;;;;;;;18.25;5.82;;;;;;;-5.16;100.00;103134.47;5064320;28;20044;-77
2024/01/09 01:35:49;;;;;;;17.98;6.00;;;;;;;-5.25;100.00;103143.84;5034592;28;20060;-70
2024/01/09 01:38:15;;;;;;;17.33;5.47;;;;;;;-5.20;100.00;103142.63;5059906;28;20120;-69
2024/01/09 01:40:40;;;;;;;18.15;5.85;;;;;;;-5.31;100.00;103143.19;5066291;28;20368;-70
2024/01/09 01:43:05;;;;;;;18.58;6.00;;;;;;;-5.30;100.00;103156.25;5049415;28;20033;-72
2024/01/09 01:45:31;;;;;;;17.67;5.70;;;;;;;-5.24;100.00;103148.25;5065937;28;20499;-77
2024/01/09 01:47:57;;;;;;;19.02;5.80;;;;;;;-5.18;100.00;103142.84;5063895;28;20036;-75
2024/01/09 01:50:23;;;;;;;17.40;5.57;;;;;;;-5.31;100.00;103144.09;5053436;28;20037;-69
2024/01/09 01:52:50;;;;;;;18.45;6.07;;;;;;;-5.35;100.00;103143.63;5065132;28;20498;-69
2024/01/09 01:55:18;;;;;;;18.13;5.82;;;;;;;-5.34;100.00;103145.47;5063487;28;20029;-69
2024/01/09 01:57:47;;;;;;;17.38;5.55;;;;;;;-5.39;100.00;103142.38;5065499;28;20475;-70
2024/01/09 02:00:13;;;;;;;17.50;5.80;;;;;;;-5.45;100.00;103139.16;5063069;28;20096;-71
2024/01/09 02:02:38;;;;;;;18.73;5.88;;;;;;;-5.44;100.00;103136.72;5056782;28;20494;-69
2024/01/09 02:05:06;;;;;;;16.70;5.47;;;;;;;-5.39;100.00;103139.78;5065948;28;20037;-70
2024/01/09 02:07:34;;;;;;;19.48;6.10;;;;;;;-5.39;100.00;103144.94;5063184;28;20472;-76
2024/01/09 02:10:00;;;;;;;17.05;5.30;;;;;;;-5.37;100.00;103142.53;5064923;28;20033;-72
2024/01/09 02:12:25;;;;;;;17.83;5.80;;;;;;;-5.35;100.00;103135.88;5063800;28;20078;-70
2024/01/09 02:14:50;;;;;;;17.88;5.80;;;;;;;-5.41;100.00;103140.41;5063835;28;20033;-70
2024/01/09 02:17:16;;;;;;;18.05;5.60;;;;;;;-5.40;100.00;103143.16;5064976;28;20040;-70
2024/01/09 02:19:41;;;;;;;17.50;5.75;;;;;;;-5.36;100.00;103136.63;5062807;28;20028;-70
2024/01/09 02:22:06;;;;;;;18.30;5.45;;;;;;;-5.42;100.00;103139.47;5065910;28;20517;-70
2024/01/09 02:24:32;;;;;;;18.52;5.80;;;;;;;-5.39;100.00;103133.72;5044604;28;20383;-70
2024/01/09 02:27:07;;;;;;;18.23;5.45;;;;;;;-5.37;100.00;103143.47;5062237;28;20028;-69
2024/01/09 02:29:34;;;;;;;16.80;5.22;;;;;;;-5.46;100.00;103129.59;5065341;28;20121;-70
2024/01/09 02:32:02;;;;;;;17.35;5.30;;;;;;;-5.46;100.00;103133.09;5055808;28;20633;-69
2024/01/09 02:34:29;;;;;;;17.77;5.45;;;;;;;-5.50;100.00;103127.47;5062997;28;20036;-70
2024/01/09 02:36:54;;;;;;;18.27;5.95;;;;;;;-5.48;100.00;103131.09;5063970;28;20079;-71
2024/01/09 02:39:20;;;;;;;17.80;5.50;;;;;;;-5.49;100.00;103130.19;5063991;28;20028;-73
2024/01/09 02:41:46;;;;;;;17.70;5.75;;;;;;;-5.55;100.00;103131.19;5032773;28;20503;-74
2024/01/09 02:44:12;;;;;;;18.25;5.55;;;;;;;-5.63;100.00;103133.88;5057890;28;20079;-72
2024/01/09 02:46:37;;;;;;;17.52;5.50;;;;;;;-5.53;100.00;103121.94;5065155;28;20434;-73
2024/01/09 02:49:02;;;;;;;17.80;5.50;;;;;;;-5.50;100.00;103123.19;5056013;28;20029;-73
2024/01/09 02:51:28;;;;;;;17.40;5.40;;;;;;;-5.47;100.00;103120.03;5062561;28;20075;-72
2024/01/09 02:53:53;;;;;;;17.67;5.63;;;;;;;-5.54;100.00;103113.31;5063247;28;20083;-71
2024/01/09 02:56:18;;;;;;;18.88;5.88;;;;;;;-5.51;100.00;103117.88;5064058;28;20058;-74
2024/01/09 02:58:44;;;;;;;18.30;5.68;;;;;;;-5.48;100.00;103105.31;5061913;28;20029;-72
2024/01/09 03:01:09;;;;;;;17.83;5.63;;;;;;;-5.55;100.00;103105.41;5064875;28;20375;-71
2024/01/09 03:03:35;;;;;;;18.70;5.60;;;;;;;-5.56;100.00;103107.09;5043803;28;20061;-72
2024/01/09 03:06:00;;;;;;;17.23;5.68;;;;;;;-5.58;100.00;103111.16;5063956;28;20048;-69
2024/01/09 03:08:25;;;;;;;18.60;6.00;;;;;;;-5.58;100.00;103103.44;5062745;28;20036;-70
2024/01/09 03:10:51;;;;;;;17.45;5.57;;;;;;;-5.63;100.00;103108.09;5033159;28;20029;-69
2024/01/09 03:13:16;;;;;;;17.55;5.68;;;;;;;-5.70;100.00;103105.63;5057810;28;20021;-70
2024/01/09 03:15:42;;;;;;;18.50;6.05;;;;;;;-5.66;100.00;103110.34;5064462;28;20392;-71
2024/01/09 03:18:07;;;;;;;17.83;5.97;;;;;;;-5.73;100.00;103110.47;5043723;28;20057;-70
2024/01/09 03:20:32;;;;;;;17.48;5.38;;;;;;;-5.76;100.00;103111.81;5056027;28;20095;-70
2024/01/09 03:22:58;;;;;;;18.92;5.60;;;;;;;-5.75;100.00;103111.97;5062627;28;20035;-71
2024/01/09 03:25:26;;;;;;;18.38;5.70;;;;;;;-5.75;100.00;103114.56;5062525;28;20037;-70
2024/01/09 03:27:55;;;;;;;18.35;5.70;;;;;;;-5.79;100.00;103104.66;5062977;28;20044;-70
2024/01/09 03:30:20;;;;;;;18.48;5.80;;;;;;;-5.80;100.00;103105.41;5062102;28;20086;-71
2024/01/09 03:32:45;;;;;;;17.92;5.88;;;;;;;-5.78;100.00;103106.50;5054809;28;20041;-74
2024/01/09 03:35:11;;;;;;;18.70;5.97;;;;;;;-5.76;100.00;103107.56;5064465;28;20376;-73
2024/01/09 03:37:37;;;;;;;18.20;5.75;;;;;;;-5.86;100.00;103117.63;5061040;28;20325;-71
2024/01/09 03:40:02;;;;;;;18.27;5.80;;;;;;;-5.86;100.00;103099.59;5046519;28;20040;-71
2024/01/09 03:42:27;;;;;;;18.40;5.90;;;;;;;-5.88;100.00;103106.22;5056605;28;20086;-71
2024/01/09 03:44:53;;;;;;;17.83;5.80;;;;;;;-5.92;100.00;103098.97;5051450;28;20036;-71
2024/01/09 03:47:18;;;;;;;17.50;5.60;;;;;;;-5.88;100.00;103106.22;5063246;28;20025;-72
2024/01/09 03:49:43;;;;;;;18.23;5.90;;;;;;;-5.89;100.00;103107.00;5061202;28;20476;-75
2024/01/09 03:52:10;;;;;;;18.33;6.07;;;;;;;-5.80;100.00;103102.81;5064672;28;20531;-75
2024/01/09 03:54:36;;;;;;;18.35;5.80;;;;;;;-5.75;100.00;103108.47;5060795;28;20040;-74
2024/01/09 03:57:01;;;;;;;18.42;6.03;;;;;;;-5.81;100.00;103095.84;5053391;28;20471;-72
2024/01/09 03:59:27;;;;;;;18.35;5.85;;;;;;;-5.82;100.00;103101.75;5062234;28;20471;-75
2024/01/09 04:01:52;;;;;;;18.52;6.03;;;;;;;-5.85;100.00;103101.44;5062051;28;20571;-76
2024/01/09 04:04:17;;;;;;;18.50;6.00;;;;;;;-5.80;100.00;103102.81;5063281;28;20031;-76
2024/01/09 04:06:43;;;;;;;18.67;5.80;;;;;;;-5.77;100.00;103100.56;5061045;28;20063;-73
2024/01/09 04:09:10;;;;;;;18.83;6.22;;;;;;;-5.75;100.00;103104.25;5046540;28;20040;-74
2024/01/09 04:11:42;;;;;;;18.05;5.97;;;;;;;-5.82;100.00;103099.19;5060578;28;20032;-72
2024/01/09 04:14:07;;;;;;;18.50;6.18;;;;;;;-5.85;100.00;103104.00;5060707;28;20108;-75
2024/01/09 04:16:34;;;;;;;18.92;5.70;;;;;;;-5.87;100.00;103090.94;5063380;28;20052;-75
2024/01/09 04:18:59;;;;;;;18.33;5.93;;;;;;;-5.86;100.00;103097.03;5061559;28;20039;-77
2024/01/09 04:21:25;;;;;;;17.90;5.95;;;;;;;-5.90;100.00;103098.34;5062486;28;20115;-72
2024/01/09 04:23:50;;;;;;;17.85;5.70;;;;;;;-5.90;100.00;103100.91;5044751;28;20043;-73
2024/01/09 04:26:15;;;;;;;19.05;6.13;;;;;;;-5.96;100.00;103106.31;5048431;28;20025;-75
2024/01/09 04:28:41;;;;;;;18.42;6.05;;;;;;;-5.96;100.00;103106.31;5054687;28;20037;-74
2024/01/09 04:31:06;;;;;;;18.23;6.10;;;;;;;-5.92;100.00;103106.69;5063686;28;20468;-74
2024/01/09 04:33:32;;;;;;;18.40;6.28;;;;;;;-5.95;100.00;103102.09;5054311;28;20583;-73
2024/01/09 04:35:57;;;;;;;18.70;6.22;;;;;;;-5.95;100.00;103108.16;5061645;28;20390;-74
2024/01/09 04:38:23;;;;;;;18.05;6.15;;;;;;;-5.99;100.00;103106.03;5064408;28;20040;-75
2024/01/09 04:40:48;;;;;;;18.13;5.70;;;;;;;-5.96;100.00;103111.47;5066749;28;20369;-78
2024/01/09 04:43:14;;;;;;;17.27;5.70;;;;;;;-5.90;100.00;103110.31;5064305;28;20071;-74
2024/01/09 04:45:39;;;;;;;18.67;6.00;;;;;;;-5.91;100.00;103101.69;5049807;28;20037;-71
2024/01/09 04:48:05;;;;;;;18.00;5.90;;;;;;;-5.95;100.00;103110.75;5064222;28;20208;-79
2024/01/09 04:50:31;;;;;;;18.45;6.00;;;;;;;-5.98;100.00;103110.44;5066385;28;20068;-73
2024/01/09 04:52:56;;;;;;;19.45;6.32;;;;;;;-6.00;100.00;103104.22;5065316;28;20079;-73
2024/01/09 04:55:21;;;;;;;18.67;6.18;;;;;;;-5.91;100.00;103113.63;5065255;28;20025;-69
2024/01/09 04:57:47;;;;;;;19.05;6.55;;;;;;;-5.97;100.00;103106.19;5066745;28;20029;-69
2024/01/09 05:00:13;;;;;;;18.90;6.10;;;;;;;-5.97;100.00;103106.19;5064031;28;20057;-71
2024/01/09 05:02:38;;;;;;;18.88;6.00;;;;;;;-5.99;100.00;103108.59;5067590;28;20032;-69
2024/01/09 05:05:04;;;;;;;18.80;6.18;;;;;;;-5.97;100.00;103101.03;5064132;28;20094;-69
2024/01/09 05:07:29;;;;;;;18.75;6.15;;;;;;;-6.00;100.00;103093.94;5065835;28;20373;-69
2024/01/09 05:09:55;;;;;;;18.67;6.30;;;;;;;-5.96;100.00;103106.31;5065660;28;20028;-70
2024/01/09 05:12:20;;;;;;;19.08;6.30;;;;;;;-6.00;100.00;103099.09;5046679;28;20037;-68
2024/01/09 05:14:46;;;;;;;19.35;6.55;;;;;;;-6.06;100.00;103108.69;5066637;28;20468;-69
2024/01/09 05:17:11;;;;;;;18.48;6.05;;;;;;;-6.08;100.00;103102.47;5063465;28;20029;-69
2024/01/09 05:19:37;;;;;;;18.98;6.05;;;;;;;-6.06;100.00;103103.53;5066700;28;20475;-73
2024/01/09 05:22:02;;;;;;;18.45;6.22;;;;;;;-6.11;100.00;103108.97;5064266;28;20052;-68
2024/01/09 05:24:27;;;;;;;19.23;6.10;;;;;;;-6.13;100.00;103101.06;5065546;28;20151;-69
2024/01/09 05:26:53;;;;;;;18.70;6.35;;;;;;;-6.04;100.00;103104.66;5065144;28;20033;-68
2024/01/09 05:29:18;;;;;;;18.35;6.10;;;;;;;-6.02;100.00;103109.97;5052026;28;20090;-71
2024/01/09 05:31:44;;;;;;;19.00;6.40;;;;;;;-6.09;100.00;103110.06;5066454;28;20043;-67
2024/01/09 05:34:10;;;;;;;18.35;6.35;;;;;;;-6.13;100.00;103111.34;5063058;28;20041;-68
2024/01/09 05:36:35;;;;;;;18.45;6.20;;;;;;;-6.08;100.00;103104.16;5066366;28;20051;-67
2024/01/09 05:39:01;;;;;;;19.15;6.65;;;;;;;-6.12;100.00;103100.31;5063886;28;20086;-67
2024/01/09 05:41:26;;;;;;;19.42;6.50;;;;;;;-6.13;100.00;103094.28;5064790;28;20033;-77
2024/01/09 05:43:51;;;;;;;19.23;6.50;;;;;;;-6.18;100.00;103097.09;5065386;28;20033;-80
2024/01/09 05:46:17;;;;;;;19.15;6.50;;;;;;;-6.18;100.00;103091.94;5063693;28;20057;-88
2024/01/09 05:48:43;;;;;;;19.10;6.30;;;;;;;-6.28;100.00;103099.44;5062024;28;20017;-74
2024/01/09 05:51:09;;;;;;;18.52;6.05;;;;;;;-6.25;100.00;103100.66;5066587;28;20028;-71
2024/01/09 05:53:38;;;;;;;18.70;6.47;;;;;;;-6.27;100.00;103096.13;5063172;28;20032;-75
2024/01/09 05:56:06;;;;;;;20.45;8.40;;;;;;;-6.29;100.00;103105.31;5065659;28;20028;-71
2024/01/09 05:58:33;;;;;;;19.30;6.60;;;;;;;-6.28;100.00;103107.16;5063727;28;20116;-75
2024/01/09 06:00:58;;;;;;;19.35;6.97;;;;;;;-6.27;100.00;103103.84;5053861;28;20444;-76
2024/01/09 06:03:23;;;;;;;19.23;7.15;;;;;;;-6.19;100.00;103110.72;5064742;28;20142;-76
2024/01/09 06:05:49;;;;;;;18.63;6.78;;;;;;;-6.24;100.00;103101.59;5063789;28;20060;-74
2024/01/09 06:08:14;;;;;;;18.83;6.50;;;;;;;-6.20;100.00;103096.03;5065925;28;20074;-75
2024/01/09 06:10:40;;;;;;;19.85;7.05;;;;;;;-6.19;100.00;103097.84;5049318;28;20033;-72
2024/01/09 06:13:06;;;;;;;20.73;7.90;;;;;;;-6.15;100.00;103092.28;5065735;28;20024;-72
2024/01/09 06:15:31;;;;;;;19.88;6.53;;;;;;;-6.20;100.00;103088.31;5061595;28;20376;-74
2024/01/09 06:17:56;;;;;;;21.17;8.88;;;;;;;-6.23;100.00;103093.09;5064037;28;20060;-72
2024/01/09 06:20:22;;;;;;;19.95;7.07;;;;;;;-6.31;100.00;103097.44;5063301;28;20056;-71
2024/01/09 06:22:47;;;;;;;20.33;7.03;;;;;;;-6.28;100.00;103102.91;5061424;28;20083;-74
2024/01/09 06:25:13;;;;;;;19.52;6.65;;;;;;;-6.28;100.00;103104.56;5065739;28;20025;-68
2024/01/09 06:27:39;;;;;;;19.77;7.18;;;;;;;-6.28;100.00;103107.16;5066121;28;20112;-66
2024/01/09 06:30:06;;;;;;;19.20;6.78;;;;;;;-6.35;100.00;103103.91;5064899;28;20495;-74
2024/01/09 06:32:32;;;;;;;19.08;6.75;;;;;;;-6.25;100.00;103110.06;5045014;28;20049;-74
2024/01/09 06:34:57;;;;;;;20.08;7.32;;;;;;;-6.33;100.00;103112.72;5063993;28;20032;-73
2024/01/09 06:37:22;;;;;;;19.60;7.30;;;;;;;-6.31;100.00;103111.19;5063956;28;20033;-73
2024/01/09 06:39:48;;;;;;;20.52;7.55;;;;;;;-6.36;100.00;103117.53;5062624;28;20064;-88
2024/01/09 06:42:13;;;;;;;19.60;6.80;;;;;;;-6.37;100.00;103127.66;5065447;28;20043;-87
2024/01/09 06:44:38;;;;;;;19.70;6.97;;;;;;;-6.36;100.00;103122.69;5061972;28;20040;-88
2024/01/09 06:47:04;;;;;;;19.77;7.07;;;;;;;-6.37;100.00;103131.13;5054529;28;20033;-87
2024/01/09 06:49:29;;;;;;;19.60;6.85;;;;;;;-6.38;100.00;103134.44;5044972;28;20052;-86
2024/01/09 06:51:54;;;;;;;19.65;6.82;;;;;;;-6.33;100.00;103141.03;5062208;28;20123;-84
2024/01/09 06:54:20;;;;;;;19.60;7.00;;;;;;;-6.37;100.00;103132.81;5064051;28;20395;-81
2024/01/09 06:56:46;;;;;;;19.65;7.20;;;;;;;-6.40;100.00;103141.09;5061963;28;20028;-85
2024/01/09 06:59:11;;;;;;;20.10;7.30;;;;;;;-6.42;100.00;103129.75;5064927;28;20028;-81
2024/01/09 07:01:38;;;;;;;20.58;8.02;;;;;;;-6.40;100.00;103132.47;5060970;28;20033;-82
2024/01/09 07:04:05;;;;;;;19.00;7.35;;;;;;;-6.38;100.00;103128.41;5064027;28;20047;-83
2024/01/09 07:06:30;;;;;;;20.17;7.38;;;;;;;-6.40;100.00;103125.66;5062833;28;20035;-83
2024/01/09 07:08:55;;;;;;;19.52;7.40;;;;;;;-6.39;100.00;103131.72;5063005;28;20032;-83
2024/01/09 07:11:20;;;;;;;20.73;8.00;;;;;;;-6.47;100.00;103130.88;5063592;28;20043;-83
2024/01/09 07:13:46;;;;;;;19.95;8.05;;;;;;;-6.49;100.00;103133.28;5061686;28;20040;-75
2024/01/09 07:16:11;;;;;;;20.42;7.70;;;;;;;-6.50;100.00;103143.41;5064914;28;20041;-77
2024/01/09 07:18:37;;;;;;;20.15;8.20;;;;;;;-6.51;100.00;103133.84;5061517;28;20114;-70
2024/01/09 07:21:02;;;;;;;19.95;7.50;;;;;;;-6.51;100.00;103133.84;5063862;28;20423;-75
2024/01/09 07:23:28;;;;;;;20.02;6.88;;;;;;;-6.49;100.00;103138.44;5044550;28;20036;-68
2024/01/09 07:25:53;;;;;;;20.30;7.50;;;;;;;-6.51;100.00;103136.44;5062489;28;20519;-69
2024/01/09 07:28:19;;;;;;;21.60;8.40;;;;;;;-6.48;100.00;103136.75;5063656;28;20547;-70
2024/01/09 07:30:44;;;;;;;20.02;7.80;;;;;;;-6.52;100.00;103135.53;5048327;28;20037;-72
2024/01/09 07:33:10;;;;;;;20.55;7.90;;;;;;;-6.46;100.00;103142.06;5064412;28;20048;-70
2024/01/09 07:35:37;;;;;;;21.15;7.90;;;;;;;-6.46;100.00;103150.72;5061435;28;20530;-69
2024/01/09 07:38:03;;;;;;;20.05;7.93;;;;;;;-6.50;100.00;103158.88;5063380;28;20050;-69
2024/01/09 07:40:29;;;;;;;20.17;7.60;;;;;;;-6.38;100.00;103149.91;5062345;28;20379;-72
2024/01/09 07:42:58;;;;;;;25.25;11.48;;;;;;;-6.44;100.00;103164.69;5062142;28;20036;-69
2024/01/09 07:45:28;;;;;;;22.05;8.77;;;;;;;-6.43;100.00;103166.50;5063053;28;20036;-69
2024/01/09 07:47:53;;;;;;;20.77;7.78;;;;;;;-6.40;100.00;103163.38;5062185;28;20075;-67
2024/01/09 07:50:19;;;;;;;20.73;8.10;;;;;;;-6.42;100.00;103170.94;5063437;28;20502;-66
2024/01/09 07:52:44;;;;;;;21.65;8.00;;;;;;;-6.41;100.00;103162.44;5042824;28;20033;-68
2024/01/09 07:55:09;;;;;;;21.85;8.32;;;;;;;-6.43;100.00;103166.50;5061145;28;20029;-66
2024/01/09 07:57:35;;;;;;;20.75;8.13;;;;;;;-6.42;100.00;103168.34;5063480;28;20391;-67
2024/01/09 08:00:00;;;;;;;20.48;8.00;;;;;;;-6.40;100.00;103172.00;5062296;28;20040;-67
2024/01/09 08:02:27;;;;;;;20.23;7.78;;;;;;;-6.38;100.00;103165.34;5062511;28;20033;-67
2024/01/09 08:04:53;;;;;;;20.73;8.00;;;;;;;-6.36;100.00;103171.59;5062871;28;20118;-69
2024/01/09 08:07:18;;;;;;;19.92;7.57;;;;;;;-6.29;100.00;103168.03;5061109;28;20096;-67
2024/01/09 08:09:44;;;;;;;20.75;8.35;;;;;;;-6.22;100.00;103173.09;5064219;28;20035;-68
2024/01/09 08:12:09;;;;;;;21.30;8.40;;;;;;;-6.16;100.00;103176.34;5062822;28;20032;-66
2024/01/09 08:14:35;;;;;;;20.45;7.97;;;;;;;-6.15;100.00;103179.84;5067380;28;20037;-66
2024/01/09 08:17:00;;;;;;;20.80;7.88;;;;;;;-6.10;100.00;103182.91;5058576;28;20032;-66
2024/01/09 08:19:25;;;;;;;20.45;7.85;;;;;;;-6.01;100.00;103189.06;5066497;28;20025;-69
2024/01/09 08:21:51;;;;;;;20.33;7.80;;;;;;;-5.93;100.00;103192.44;5065321;28;20036;-69
2024/01/09 08:24:18;;;;;;;22.48;7.97;;;;;;;-5.83;100.00;103182.38;5067782;28;20032;-69
2024/01/09 08:26:48;;;;;;;20.48;8.00;;;;;;;-5.72;100.00;103184.44;5064443;28;20025;-69
2024/01/09 08:29:15;;;;;;;20.42;7.80;;;;;;;-5.54;100.00;103182.03;5064416;28;20384;-68
2024/01/09 08:31:45;;;;;;;20.85;7.75;;;;;;;-5.38;100.00;103190.63;5064481;28;20036;-67
2024/01/09 08:34:10;;;;;;;20.30;7.82;;;;;;;-5.28;100.00;103175.38;5059931;28;20094;-67
2024/01/09 08:36:35;;;;;;;20.48;8.05;;;;;;;-5.10;100.00;103185.78;5057071;28;20040;-66
2024/01/09 08:39:02;;;;;;;20.63;7.85;;;;;;;-4.99;100.00;103190.41;5065524;28;20094;-67
2024/01/09 08:41:27;;;;;;;20.40;8.15;;;;;;;-4.83;100.00;103187.78;5066117;28;20056;-66
2024/01/09 08:43:52;;;;;;;21.17;8.35;;;;;;;-4.62;100.00;103183.91;5066444;28;20063;-69
2024/01/09 08:46:18;;;;;;;21.02;8.50;;;;;;;-4.43;100.00;103190.97;5064858;28;20064;-67
2024/01/09 08:48:43;;;;;;;21.02;8.32;;;;;;;-4.33;100.00;103198.91;5067467;28;20543;-66
2024/01/09 08:51:09;;;;;;;19.98;7.63;;;;;;;-4.35;100.00;103190.09;5064177;28;20040;-67
2024/01/09 08:53:34;;;;;;;20.27;7.80;;;;;;;-4.20;100.00;103186.47;5066971;28;20083;-67
2024/01/09 08:56:00;;;;;;;20.42;7.93;;;;;;;-4.20;100.00;103186.47;5065443;28;20464;-69
2024/01/09 08:58:25;;;;;;;21.20;8.10;;;;;;;-3.96;100.00;103189.72;5065427;28;20446;-69
2024/01/09 09:00:52;;;;;;;21.15;8.25;;;;;;;-3.91;100.00;103191.09;5066416;28;20032;-69
2024/01/09 09:03:17;;;;;;;20.85;8.10;;;;;;;-3.72;100.00;103195.53;5064004;28;20040;-63
2024/01/09 09:05:42;;;;;;;20.10;8.00;;;;;;;-3.48;100.00;103196.13;5067376;28;20036;-66
2024/01/09 09:08:08;;;;;;;20.33;7.90;;;;;;;-3.41;100.00;103185.63;5063838;28;20392;-67
2024/01/09 09:10:33;;;;;;;19.67;7.57;;;;;;;-3.35;100.00;103196.56;5065947;28;20384;-67
2024/01/09 09:12:58;;;;;;;21.23;8.35;;;;;;;-3.08;100.00;103194.88;5065535;28;20386;-67
2024/01/09 09:15:24;;;;;;;19.30;7.63;;;;;;;-3.11;100.00;103207.50;5064592;28;20452;-68
2024/01/09 09:17:49;;;;;;;24.63;8.20;;;;;;;-3.07;100.00;103205.38;5066503;28;20529;-68
2024/01/09 09:20:16;;;;;;;20.00;7.63;;;;;;;-2.85;100.00;103213.53;5045622;28;20123;-68
2024/01/09 09:22:42;;;;;;;20.23;7.70;;;;;;;-2.65;100.00;103211.94;5049190;28;20078;-65
2024/01/09 09:25:08;;;;;;;20.25;7.65;;;;;;;-2.51;100.00;103196.03;5066553;28;20029;-61
2024/01/09 09:27:33;;;;;;;20.13;8.05;;;;;;;-2.57;100.00;103195.44;5064559;28;20028;-68
2024/01/09 09:29:58;;;;;;;20.63;7.88;;;;;;;-2.42;100.00;103205.44;5065187;28;20074;-63
2024/01/09 09:32:24;;;;;;;19.80;7.78;;;;;;;-2.22;100.00;103199.56;5065549;28;20033;-64
2024/01/09 09:34:49;;;;;;;20.25;8.00;;;;;;;-2.09;100.00;103193.84;5064108;28;20025;-68
2024/01/09 09:37:15;;;;;;;19.67;7.63;;;;;;;-1.92;100.00;103206.69;5066618;28;20021;-69
2024/01/09 09:39:40;;;;;;;19.92;7.50;;;;;;;-1.88;100.00;103203.59;5063360;28;20357;-72
2024/01/09 09:42:08;;;;;;;20.88;7.80;;;;;;;-1.72;100.00;103205.03;5065756;28;20115;-73
2024/01/09 09:44:37;;;;;;;19.75;7.75;;;;;;;-1.56;100.00;103200.47;5063888;28;20484;-74
2024/01/09 09:47:03;;;;;;;19.70;7.57;;;;;;;-1.31;100.00;103202.69;5065356;28;20044;-73
2024/01/09 09:49:30;;;;;;;20.20;7.35;;;;;;;-1.19;100.00;103196.00;5064652;28;20046;-71
2024/01/09 09:51:58;;;;;;;20.30;7.72;;;;;;;-0.97;100.00;103197.94;5064100;28;20063;-70
2024/01/09 09:54:24;;;;;;;20.48;7.88;;;;;;;-0.56;100.00;103198.06;5065365;28;20046;-72
2024/01/09 09:56:50;;;;;;;19.35;7.15;;;;;;;-0.33;100.00;103199.16;5063403;28;20107;-70
2024/01/09 09:59:15;;;;;;;19.50;7.45;;;;;;;-0.09;100.00;103198.63;5066121;28;20460;-70
2024/01/09 10:01:43;;;;;;;20.92;7.60;;;;;;;0.10;100.00;103195.94;5049296;28;20035;-70
2024/01/09 10:04:29;;;;;;;19.42;7.20;;;;;;;0.13;100.00;103185.78;5067169;28;20025;-70
2024/01/09 10:07:00;;;;;;;20.35;7.32;;;;;;;0.41;100.00;103197.56;5066144;28;20027;-69
2024/01/09 10:09:32;;;;;;;19.75;7.10;;;;;;;0.75;100.00;103190.84;5046722;28;20056;-82
2024/01/09 10:11:57;;;;;;;20.05;7.35;;;;;;;0.40;100.00;103186.25;5064101;28;20124;-82
2024/01/09 10:14:22;;;;;;;19.73;7.10;;;;;;;0.36;100.00;103173.75;5061951;28;20116;-70
2024/01/09 10:16:50;;;;;;;20.25;7.47;;;;;;;0.55;100.00;103176.19;5065605;28;20028;-68
2024/01/09 10:19:16;;;;;;;19.52;7.30;;;;;;;0.75;100.00;103179.53;5062359;28;20029;-68
2024/01/09 10:21:41;;;;;;;19.65;7.00;;;;;;;1.18;100.00;103180.38;5062632;28;20087;-67
2024/01/09 10:24:08;;;;;;;20.23;7.28;;;;;;;1.43;98.77;103179.72;5065068;28;20078;-67
2024/01/09 10:26:33;;;;;;;19.83;7.45;;;;;;;1.67;94.80;103173.81;5063435;28;20057;-68
2024/01/09 10:28:59;;;;;;;20.00;7.55;;;;;;;2.02;97.63;103173.03;5047072;28;20445;-68
2024/01/09 10:31:24;;;;;;;20.30;7.25;;;;;;;2.13;84.34;103175.56;5040000;28;20154;-68
2024/01/09 10:33:50;;;;;;;19.63;6.93;;;;;;;1.85;83.99;103163.00;5049915;28;20136;-69
2024/01/09 10:36:15;;;;;;;19.95;7.20;;;;;;;1.67;83.58;103173.81;5047848;28;20083;-69
2024/01/09 10:38:41;;;;;;;20.27;7.32;;;;;;;1.44;78.11;103176.34;5061841;28;20033;-69
2024/01/09 10:41:16;;;;;;;21.38;7.32;;;;;;;1.59;86.71;103168.78;5064697;28;20051;-69
2024/01/09 10:43:46;;;;;;;20.20;7.30;;;;;;;1.95;82.53;103159.41;5062111;28;20029;-70
2024/01/09 10:46:12;;;;;;;19.85;7.43;;;;;;;2.09;79.47;103158.75;5061788;28;20407;-70
2024/01/09 10:48:40;;;;;;;19.88;7.03;;;;;;;2.49;77.33;103151.31;5064618;28;20028;-71
2024/01/09 10:51:06;;;;;;;19.92;7.53;;;;;;;2.71;74.39;103161.63;5062572;28;20035;-71
2024/01/09 10:53:35;;;;;;;20.25;7.13;;;;;;;2.54;71.37;103154.25;5063786;28;20053;-72
2024/01/09 10:56:03;;;;;;;19.45;7.13;;;;;;;2.69;72.82;103152.75;5063076;28;20017;-72
2024/01/09 10:58:28;;;;;;;18.98;7.53;;;;;;;2.91;69.27;103146.50;5052194;28;20033;-74
2024/01/09 11:00:53;;;;;;;20.05;7.65;;;;;;;3.31;69.67;103151.97;5063971;28;20025;-72
2024/01/09 11:03:19;;;;;;;20.10;7.40;;;;;;;3.23;65.22;103143.59;5061709;28;20078;-73